createdAt,value
2018-11-04T00:01:14.691Z,31.47
2018-11-04T00:03:49.333Z,36.27
2018-11-04T00:06:21.482Z,30.67
2018-11-04T00:08:56.558Z,32.47
2018-11-04T00:11:30.550Z,36.87
2018-11-04T00:13:59.059Z,33.27
2018-11-04T00:16:46.486Z,34.60
2018-11-04T00:19:16.078Z,34.83
2018-11-04T00:21:47.630Z,35.67
2018-11-04T00:24:16.323Z,32.60
2018-11-04T00:26:45.831Z,34.57
2018-11-04T00:29:15.454Z,32.33
2018-11-04T00:31:44.165Z,34.33
2018-11-04T00:34:18.342Z,30.17
2018-11-04T00:36:46.947Z,32.70
2018-11-04T00:39:21.801Z,30.20
2018-11-04T00:41:50.375Z,35.20
2018-11-04T00:44:19.079Z,31.00
2018-11-04T00:46:47.724Z,31.20
2018-11-04T00:49:16.405Z,30.70
2018-11-04T00:51:45.109Z,35.07
2018-11-04T00:54:14.819Z,31.47
2018-11-04T00:56:45.433Z,32.70
2018-11-04T00:59:14.056Z,36.57
2018-11-04T01:01:43.845Z,30.30
2018-11-04T01:04:15.690Z,35.43
2018-11-04T01:06:45.363Z,32.00
2018-11-04T01:09:14.006Z,32.63
2018-11-04T01:11:44.747Z,29.50
2018-11-04T01:14:14.198Z,34.77
2018-11-04T01:16:43.752Z,32.33
2018-11-04T01:19:13.240Z,32.70
2018-11-04T01:21:46.121Z,36.10
2018-11-04T01:24:14.718Z,31.87
2018-11-04T01:26:43.388Z,31.93
2018-11-04T01:29:12.147Z,32.60
2018-11-04T01:31:40.730Z,34.17
2018-11-04T01:34:09.448Z,31.47
2018-11-04T01:36:38.142Z,35.63
2018-11-04T01:39:08.764Z,34.57
2018-11-04T01:41:39.018Z,34.87
2018-11-04T01:44:10.902Z,32.07
2018-11-04T01:46:40.478Z,32.97
2018-11-04T01:49:10.395Z,32.80
2018-11-04T01:51:39.162Z,35.03
2018-11-04T01:54:11.732Z,31.33
2018-11-04T01:56:40.293Z,32.90
2018-11-04T01:59:09.125Z,33.33
2018-11-04T02:01:44.065Z,34.23
2018-11-04T02:04:12.542Z,30.20
2018-11-04T02:06:41.219Z,38.30
2018-11-04T02:09:10.866Z,33.13
2018-11-04T02:11:39.551Z,29.50
2018-11-04T02:17:02.193Z,33.10
2018-11-04T02:19:45.173Z,34.33
2018-11-04T02:22:20.254Z,34.73
2018-11-04T02:24:48.676Z,33.37
2018-11-04T02:27:17.385Z,31.33
2018-11-04T02:29:46.136Z,33.20
2018-11-04T02:32:14.749Z,34.83
2018-11-04T02:34:43.489Z,37.10
2018-11-04T02:37:12.949Z,33.70
2018-11-04T02:39:48.060Z,29.77
2018-11-04T02:42:16.463Z,35.93
2018-11-04T02:44:45.989Z,48.13
2018-11-04T02:47:14.710Z,40.23
2018-11-04T02:49:46.656Z,37.50
2018-11-04T02:52:15.388Z,37.87
2018-11-04T02:54:44.013Z,34.47
2018-11-04T02:57:16.001Z,33.80
2018-11-04T02:59:52.221Z,31.10
2018-11-04T03:02:24.535Z,34.33
2018-11-04T03:04:55.132Z,33.17
2018-11-04T03:07:24.172Z,28.60
2018-11-04T03:09:52.570Z,31.13
2018-11-04T03:12:26.745Z,34.80
2018-11-04T03:14:55.175Z,33.47
2018-11-04T03:17:23.881Z,32.13
2018-11-04T03:19:53.487Z,33.93
2018-11-04T03:22:25.459Z,31.93
2018-11-04T03:25:00.375Z,32.57
2018-11-04T03:27:29.113Z,35.47
2018-11-04T03:29:57.619Z,33.00
2018-11-04T03:32:31.760Z,29.60
2018-11-04T03:35:00.280Z,36.93
2018-11-04T03:37:28.962Z,33.17
2018-11-04T03:39:57.658Z,28.70
2018-11-04T03:42:26.442Z,34.73
2018-11-04T03:44:59.931Z,32.23
2018-11-04T03:47:33.338Z,31.53
2018-11-04T03:50:03.135Z,29.33
2018-11-04T03:52:32.586Z,30.63
2018-11-04T03:55:04.358Z,34.27
2018-11-04T03:57:38.425Z,30.50
2018-11-04T04:00:09.990Z,33.10
2018-11-04T04:02:44.748Z,32.70
2018-11-04T04:05:13.185Z,36.30
2018-11-04T04:07:41.916Z,33.23
2018-11-04T04:10:10.548Z,36.20
2018-11-04T04:12:40.053Z,33.87
2018-11-04T04:15:12.654Z,37.33
2018-11-04T04:17:47.100Z,35.67
2018-11-04T04:20:15.652Z,32.33
2018-11-04T04:22:45.054Z,30.83
2018-11-04T04:25:16.625Z,32.43
2018-11-04T04:27:50.822Z,33.37
2018-11-04T04:30:19.330Z,32.47
2018-11-04T04:32:48.054Z,29.40
2018-11-04T04:35:16.686Z,33.80
2018-11-04T04:37:45.341Z,34.53
2018-11-04T04:40:14.078Z,33.37
2018-11-04T04:42:43.557Z,33.13
2018-11-04T04:45:12.249Z,35.10
2018-11-04T04:47:42.063Z,36.93
2018-11-04T04:50:16.787Z,36.63
2018-11-04T04:52:48.979Z,35.17
2018-11-04T04:55:18.877Z,33.20
2018-11-04T04:57:53.121Z,38.80
2018-11-04T05:00:21.563Z,35.53
2018-11-04T05:02:51.064Z,31.70
2018-11-04T05:05:19.805Z,35.10
2018-11-04T05:07:50.487Z,32.60
2018-11-04T05:10:20.858Z,33.70
2018-11-04T05:12:49.615Z,36.10
2018-11-04T05:15:18.195Z,34.87
2018-11-04T05:17:46.899Z,32.43
2018-11-04T05:20:16.387Z,33.70
2018-11-04T05:22:55.988Z,34.70
2018-11-04T05:25:31.608Z,34.90
2018-11-04T05:28:00.095Z,37.10
2018-11-04T05:30:28.841Z,38.10
2018-11-04T05:32:57.412Z,34.17
2018-11-04T05:35:26.221Z,30.37
2018-11-04T05:38:00.334Z,34.40
2018-11-04T05:40:28.860Z,32.40
2018-11-04T05:43:02.414Z,31.47
2018-11-04T05:45:36.471Z,36.30
2018-11-04T05:48:10.684Z,31.47
2018-11-04T05:50:39.144Z,32.57
2018-11-04T05:53:08.667Z,34.00
2018-11-04T05:55:37.371Z,39.87
2018-11-04T05:58:06.822Z,33.83
2018-11-04T06:00:41.081Z,30.53
2018-11-04T06:03:15.873Z,32.30
2018-11-04T06:05:48.080Z,32.00
2018-11-04T06:08:20.058Z,32.07
2018-11-04T06:10:52.935Z,30.30
2018-11-04T06:13:21.503Z,36.33
2018-11-04T06:15:51.012Z,33.27
2018-11-04T06:18:25.650Z,34.13
2018-11-04T06:20:54.132Z,32.47
2018-11-04T06:23:35.480Z,32.13
2018-11-04T06:26:04.304Z,30.97
2018-11-04T06:28:32.916Z,34.90
2018-11-04T06:31:07.134Z,35.40
2018-11-04T06:33:39.260Z,30.27
2018-11-04T06:36:08.760Z,31.80
2018-11-04T06:38:40.736Z,32.60
2018-11-04T06:41:09.487Z,37.23
2018-11-04T06:43:43.004Z,35.03
2018-11-04T06:46:17.397Z,34.43
2018-11-04T06:48:49.620Z,33.13
2018-11-04T06:51:18.112Z,33.63
2018-11-04T06:53:51.267Z,34.00
2018-11-04T06:56:19.972Z,35.03
2018-11-04T06:58:52.361Z,35.20
2018-11-04T07:01:27.048Z,34.20
2018-11-04T07:04:10.344Z,33.03
2018-11-04T07:06:45.257Z,34.30
2018-11-04T07:09:19.460Z,37.70
2018-11-04T07:11:49.679Z,38.53
2018-11-04T07:14:20.635Z,35.77
2018-11-04T07:16:49.185Z,38.07
2018-11-04T07:19:17.922Z,38.63
2018-11-04T07:21:46.597Z,41.30
2018-11-04T07:24:15.273Z,38.63
2018-11-04T07:26:43.939Z,45.87
2018-11-04T07:29:12.647Z,41.87
2018-11-04T07:31:41.334Z,38.50
2018-11-04T07:34:12.866Z,42.93
2018-11-04T07:36:44.867Z,40.90
2018-11-04T07:39:19.047Z,37.60
2018-11-04T07:41:47.550Z,39.63
2018-11-04T07:47:31.529Z,44.30
2018-11-04T07:52:52.779Z,41.87
2018-11-04T07:55:21.389Z,45.90
2018-11-04T07:57:50.090Z,41.57
2018-11-04T08:00:19.221Z,40.53
2018-11-04T08:02:53.407Z,42.40
2018-11-04T08:05:26.893Z,39.80
2018-11-04T08:08:03.082Z,44.00
2018-11-04T08:10:31.577Z,45.33
2018-11-04T08:13:00.243Z,41.17
2018-11-04T08:15:29.760Z,48.27
2018-11-04T08:18:04.772Z,43.67
2018-11-04T08:20:33.274Z,63.23
2018-11-04T08:23:08.747Z,53.03
2018-11-04T08:25:37.258Z,50.47
2018-11-04T08:28:07.241Z,50.57
2018-11-04T08:30:35.854Z,52.90
2018-11-04T08:33:05.666Z,47.23
2018-11-04T08:35:46.101Z,50.47
2018-11-04T08:38:20.896Z,47.83
2018-11-04T08:40:49.420Z,43.50
2018-11-04T08:43:18.185Z,45.90
2018-11-04T08:45:46.843Z,44.17
2018-11-04T08:48:23.131Z,44.60
2018-11-04T08:50:55.241Z,41.77
2018-11-04T08:53:30.226Z,42.47
2018-11-04T08:55:58.730Z,41.37
2018-11-04T08:58:28.292Z,38.80
2018-11-04T09:00:56.865Z,40.13
2018-11-04T09:03:26.494Z,41.03
2018-11-04T09:06:01.423Z,41.87
2018-11-04T09:08:29.959Z,41.90
2018-11-04T09:10:59.398Z,43.63
2018-11-04T09:13:28.194Z,40.37
2018-11-04T09:16:02.414Z,39.73
2018-11-04T09:18:37.183Z,41.53
2018-11-04T09:21:05.785Z,43.03
2018-11-04T09:23:52.292Z,45.30
2018-11-04T09:26:20.629Z,41.17
2018-11-04T09:28:50.183Z,44.23
2018-11-04T09:31:22.564Z,42.10
2018-11-04T09:33:54.095Z,41.23
2018-11-04T09:36:29.025Z,34.20
2018-11-04T09:38:57.681Z,42.33
2018-11-04T09:41:30.031Z,44.37
2018-11-04T09:44:02.779Z,35.17
2018-11-04T09:46:36.942Z,37.20
2018-11-04T09:49:05.531Z,35.37
2018-11-04T09:51:34.977Z,36.70
2018-11-04T09:54:03.752Z,34.20
2018-11-04T09:56:37.944Z,40.10
2018-11-04T09:59:06.467Z,36.80
2018-11-04T10:01:35.014Z,36.03
2018-11-04T10:04:05.175Z,37.73
2018-11-04T10:06:33.673Z,34.83
2018-11-04T10:09:08.019Z,36.83
2018-11-04T10:11:39.997Z,33.87
2018-11-04T10:14:18.771Z,35.07
2018-11-04T10:16:51.705Z,37.40
2018-11-04T10:19:28.184Z,35.43
2018-11-04T10:21:58.213Z,31.80
2018-11-04T10:24:39.919Z,37.07
2018-11-04T10:27:16.206Z,32.60
2018-11-04T10:29:44.667Z,33.53
2018-11-04T10:32:22.821Z,37.73
2018-11-04T10:34:54.771Z,30.87
2018-11-04T10:37:28.645Z,34.57
2018-11-04T10:40:01.289Z,33.63
2018-11-04T10:42:35.491Z,35.40
2018-11-04T10:45:09.167Z,34.63
2018-11-04T10:47:37.978Z,34.17
2018-11-04T10:50:08.719Z,37.87
2018-11-04T10:52:37.460Z,31.73
2018-11-04T10:55:06.819Z,32.93
2018-11-04T10:57:36.374Z,34.83
2018-11-04T11:00:16.251Z,34.60
2018-11-04T11:02:46.370Z,31.03
2018-11-04T11:05:15.370Z,29.77
2018-11-04T11:07:45.383Z,32.00
2018-11-04T11:10:17.887Z,31.83
2018-11-04T11:12:52.044Z,29.63
2018-11-04T11:15:27.794Z,29.47
2018-11-04T11:18:09.719Z,28.00
2018-11-04T11:20:39.618Z,32.77
2018-11-04T11:23:12.502Z,29.83
2018-11-04T11:25:48.689Z,29.37
2018-11-04T11:28:19.198Z,29.70
2018-11-04T11:30:47.998Z,33.20
2018-11-04T11:33:16.466Z,29.83
2018-11-04T11:35:48.868Z,32.87
2018-11-04T11:38:23.062Z,30.23
2018-11-04T11:40:58.679Z,29.73
2018-11-04T11:43:27.259Z,33.73
2018-11-04T11:46:00.072Z,33.90
2018-11-04T11:48:32.088Z,33.80
2018-11-04T11:51:00.752Z,34.93
2018-11-04T11:53:36.986Z,48.10
2018-11-04T11:56:05.500Z,31.30
2018-11-04T11:58:40.191Z,32.57
2018-11-04T12:01:12.937Z,32.33
2018-11-04T12:03:45.071Z,31.90
2018-11-04T12:06:13.695Z,32.13
2018-11-04T12:08:44.483Z,29.30
2018-11-04T12:11:16.615Z,28.13
2018-11-04T12:13:47.072Z,28.60
2018-11-04T12:16:23.355Z,34.90
2018-11-04T12:18:58.161Z,30.40
2018-11-04T12:21:26.732Z,27.03
2018-11-04T12:23:55.444Z,30.70
2018-11-04T12:26:28.824Z,32.13
2018-11-04T12:29:00.901Z,29.27
2018-11-04T12:31:41.491Z,30.40
2018-11-04T12:34:10.987Z,29.27
2018-11-04T12:36:42.928Z,30.43
2018-11-04T12:39:15.745Z,26.97
2018-11-04T12:41:45.323Z,36.97
2018-11-04T12:44:13.912Z,30.43
2018-11-04T12:46:52.240Z,30.07
2018-11-04T12:52:14.937Z,30.73
2018-11-04T12:54:45.522Z,28.80
2018-11-04T12:57:24.334Z,29.20
2018-11-04T12:59:52.768Z,25.87
2018-11-04T13:02:27.509Z,32.27
2018-11-04T13:04:57.326Z,24.87
2018-11-04T13:07:29.444Z,28.07
2018-11-04T13:09:58.186Z,27.27
2018-11-04T13:12:26.906Z,28.93
2018-11-04T13:14:55.509Z,27.53
2018-11-04T13:17:24.409Z,26.30
2018-11-04T13:19:54.119Z,27.60
2018-11-04T13:22:24.858Z,30.63
2018-11-04T13:24:53.531Z,25.00
2018-11-04T13:27:24.331Z,28.87
2018-11-04T13:30:00.107Z,27.73
2018-11-04T13:32:32.921Z,24.77
2018-11-04T13:35:02.972Z,26.93
2018-11-04T13:37:38.571Z,29.97
2018-11-04T13:40:15.469Z,31.57
2018-11-04T13:42:53.577Z,30.80
2018-11-04T13:45:35.347Z,30.03
2018-11-04T13:48:03.881Z,28.40
2018-11-04T13:50:33.783Z,24.70
2018-11-04T13:53:02.419Z,26.90
2018-11-04T13:55:31.349Z,26.80
2018-11-04T13:58:01.060Z,27.47
2018-11-04T14:00:29.775Z,28.23
2018-11-04T14:02:58.537Z,28.37
2018-11-04T14:05:28.461Z,28.43
2018-11-04T14:08:03.080Z,29.43
2018-11-04T14:10:31.945Z,26.20
2018-11-04T14:13:00.667Z,27.37
2018-11-04T14:15:29.165Z,28.77
2018-11-04T14:17:59.683Z,27.33
2018-11-04T14:20:28.255Z,28.40
2018-11-04T14:23:02.149Z,28.93
2018-11-04T14:25:37.082Z,26.20
2018-11-04T14:28:05.648Z,25.87
2018-11-04T14:30:35.219Z,25.97
2018-11-04T14:33:10.606Z,25.20
2018-11-04T14:35:41.168Z,29.83
2018-11-04T14:38:10.697Z,27.83
2018-11-04T14:40:43.436Z,25.23
2018-11-04T14:43:12.942Z,29.60
2018-11-04T14:45:41.683Z,27.40
2018-11-04T14:48:17.055Z,30.13
2018-11-04T14:50:45.562Z,28.83
2018-11-04T14:53:20.146Z,29.93
2018-11-04T14:55:52.829Z,31.10
2018-11-04T14:58:22.295Z,28.53
2018-11-04T15:00:51.823Z,28.67
2018-11-04T15:03:26.399Z,26.83
2018-11-04T15:05:55.286Z,31.47
2018-11-04T15:08:28.476Z,28.93
2018-11-04T15:11:08.861Z,30.40
2018-11-04T15:13:38.570Z,31.20
2018-11-04T15:16:07.229Z,30.50
2018-11-04T15:18:41.434Z,30.97
2018-11-04T15:21:09.968Z,32.93
2018-11-04T15:23:44.200Z,30.40
2018-11-04T15:26:14.697Z,31.70
2018-11-04T15:28:43.378Z,32.03
2018-11-04T15:31:17.998Z,33.27
2018-11-04T15:33:46.493Z,34.07
2018-11-04T15:36:18.013Z,34.67
2018-11-04T15:38:50.078Z,32.40
2018-11-04T15:41:18.751Z,33.93
2018-11-04T15:43:47.330Z,34.70
2018-11-04T15:46:17.740Z,35.40
2018-11-04T15:48:47.205Z,33.97
2018-11-04T15:51:15.877Z,32.90
2018-11-04T15:53:58.512Z,33.63
2018-11-04T15:56:32.163Z,36.40
2018-11-04T15:59:04.531Z,39.63
2018-11-04T16:01:36.850Z,39.63
2018-11-04T16:04:05.783Z,42.10
2018-11-04T16:06:34.308Z,42.80
2018-11-04T16:09:10.502Z,40.33
2018-11-04T16:11:51.452Z,40.17
2018-11-04T16:14:21.991Z,37.53
2018-11-04T16:16:50.671Z,37.23
2018-11-04T16:19:19.396Z,39.47
2018-11-04T16:21:54.406Z,41.30
2018-11-04T16:24:24.906Z,42.37
2018-11-04T16:26:53.657Z,40.07
2018-11-04T16:29:29.870Z,42.37
2018-11-04T16:31:58.860Z,46.97
2018-11-04T16:34:28.346Z,43.77
2018-11-04T16:36:56.980Z,48.13
2018-11-04T16:39:25.727Z,42.60
2018-11-04T16:41:54.343Z,46.90
2018-11-04T16:44:26.634Z,36.83
2018-11-04T16:46:59.955Z,40.97
2018-11-04T16:49:29.274Z,34.93
2018-11-04T16:52:05.215Z,38.90
2018-11-04T16:54:33.814Z,40.47
2018-11-04T16:57:11.003Z,34.53
2018-11-04T16:59:42.596Z,36.87
2018-11-04T17:02:13.801Z,42.27
2018-11-04T17:04:49.494Z,39.33
2018-11-04T17:07:18.067Z,38.73
2018-11-04T17:09:57.217Z,39.40
2018-11-04T17:12:25.783Z,37.27
2018-11-04T17:14:54.355Z,40.33
2018-11-04T17:17:23.059Z,46.87
2018-11-04T17:19:51.765Z,40.63
2018-11-04T17:22:26.447Z,43.03
2018-11-04T17:24:56.265Z,39.90
2018-11-04T17:27:24.917Z,42.90
2018-11-04T17:29:53.643Z,45.03
2018-11-04T17:32:22.625Z,42.20
2018-11-04T17:34:51.581Z,45.50
2018-11-04T17:37:30.075Z,39.80
2018-11-04T17:40:09.707Z,39.57
2018-11-04T17:42:44.201Z,42.93
2018-11-04T17:45:19.789Z,38.37
2018-11-04T17:47:48.297Z,46.23
2018-11-04T17:50:18.262Z,54.17
2018-11-04T17:52:49.743Z,43.90
2018-11-04T17:55:19.293Z,47.87
2018-11-04T17:57:53.817Z,45.63
2018-11-04T18:00:22.386Z,50.93
2018-11-04T18:02:54.340Z,51.47
2018-11-04T18:05:23.011Z,51.30
2018-11-04T18:07:51.726Z,54.77
2018-11-04T18:10:20.420Z,48.17
2018-11-04T18:12:52.427Z,54.70
2018-11-04T18:15:23.883Z,54.20
2018-11-04T18:17:55.933Z,52.70
2018-11-04T18:20:27.434Z,55.27
2018-11-04T18:23:01.707Z,49.73
2018-11-04T18:25:37.409Z,52.23
2018-11-04T18:28:09.886Z,52.27
2018-11-04T18:30:39.391Z,52.77
2018-11-04T18:33:08.926Z,49.87
2018-11-04T18:35:40.876Z,52.07
2018-11-04T18:38:11.548Z,54.50
2018-11-04T18:40:43.686Z,52.40
2018-11-04T18:43:12.379Z,50.03
2018-11-04T18:45:44.420Z,55.07
2018-11-04T18:48:14.319Z,49.10
2018-11-04T18:50:42.996Z,51.87
2018-11-04T18:53:11.692Z,55.63
2018-11-04T18:55:40.293Z,49.73
2018-11-04T18:58:09.031Z,51.33
2018-11-04T19:00:37.796Z,55.53
2018-11-04T19:03:13.549Z,52.17
2018-11-04T19:05:45.700Z,52.57
2018-11-04T19:08:14.383Z,54.03
2018-11-04T19:10:43.063Z,53.83
2018-11-04T19:13:13.928Z,49.87
2018-11-04T19:15:46.190Z,50.83
2018-11-04T19:18:22.405Z,52.67
2018-11-04T19:23:58.419Z,52.37
2018-11-04T19:26:29.739Z,48.73
2018-11-04T19:28:59.663Z,55.37
2018-11-04T19:31:29.595Z,49.43
2018-11-04T19:33:58.142Z,52.83
2018-11-04T19:36:26.982Z,53.73
2018-11-04T19:39:03.252Z,49.60
2018-11-04T19:41:35.259Z,49.97
2018-11-04T19:44:07.138Z,50.17
2018-11-04T19:46:39.504Z,51.70
2018-11-04T19:49:12.695Z,52.83
2018-11-04T19:51:41.421Z,53.83
2018-11-04T19:54:15.574Z,51.13
2018-11-04T19:56:47.904Z,53.30
2018-11-04T19:59:21.955Z,49.30
2018-11-04T20:01:50.498Z,52.63
2018-11-04T20:04:20.007Z,55.07
2018-11-04T20:06:48.735Z,54.77
2018-11-04T20:09:22.753Z,49.93
2018-11-04T20:12:02.603Z,50.83
2018-11-04T20:14:31.124Z,51.60
2018-11-04T20:17:03.047Z,51.30
2018-11-04T20:19:40.555Z,50.50
2018-11-04T20:22:09.870Z,52.00
2018-11-04T20:24:43.872Z,56.13
2018-11-04T20:27:14.647Z,53.27
2018-11-04T20:29:50.080Z,48.70
2018-11-04T20:32:23.841Z,52.50
2018-11-04T20:34:52.688Z,54.33
2018-11-04T20:37:21.530Z,56.30
2018-11-04T20:39:59.089Z,52.90
2018-11-04T20:42:28.466Z,51.30
2018-11-04T20:44:57.478Z,49.40
2018-11-04T20:47:31.122Z,55.47
2018-11-04T20:50:05.377Z,52.63
2018-11-04T20:52:34.008Z,50.30
2018-11-04T20:55:03.950Z,52.07
2018-11-04T20:57:38.819Z,49.40
2018-11-04T21:00:12.575Z,52.43
2018-11-04T21:02:44.672Z,52.93
2018-11-04T21:05:13.304Z,58.93
2018-11-04T21:07:44.112Z,55.87
2018-11-04T21:10:18.185Z,55.53
2018-11-04T21:12:46.722Z,54.00
2018-11-04T21:15:15.481Z,54.27
2018-11-04T21:17:44.045Z,55.60
2018-11-04T21:20:12.747Z,53.73
2018-11-04T21:22:41.649Z,53.83
2018-11-04T21:25:11.425Z,48.90
2018-11-04T21:27:45.768Z,52.60
2018-11-04T21:30:22.421Z,49.80
2018-11-04T21:32:54.642Z,52.37
2018-11-04T21:35:28.427Z,49.27
2018-11-04T21:37:57.008Z,46.20
2018-11-04T21:40:26.465Z,43.67
2018-11-04T21:42:58.845Z,54.40
2018-11-04T21:45:27.458Z,48.33
2018-11-04T21:47:59.030Z,46.40
2018-11-04T21:50:28.063Z,45.13
2018-11-04T21:52:59.702Z,46.73
2018-11-04T21:55:31.461Z,46.17
2018-11-04T21:58:00.749Z,47.63
2018-11-04T22:00:35.380Z,45.90
2018-11-04T22:03:03.905Z,51.17
2018-11-04T22:05:33.357Z,47.10
2018-11-04T22:08:05.416Z,48.13
2018-11-04T22:10:34.052Z,46.87
2018-11-04T22:13:04.808Z,46.73
2018-11-04T22:15:36.700Z,43.67
2018-11-04T22:18:09.467Z,44.53
2018-11-04T22:20:38.201Z,49.30
2018-11-04T22:23:08.927Z,43.80
2018-11-04T22:25:39.634Z,44.93
2018-11-04T22:28:22.678Z,43.40
2018-11-04T22:30:51.349Z,46.77
2018-11-04T22:33:23.320Z,44.07
2018-11-04T22:35:57.499Z,47.67
2018-11-04T22:38:26.737Z,44.17
2018-11-04T22:41:01.218Z,47.13
2018-11-04T22:43:31.746Z,48.73
2018-11-04T22:46:00.402Z,44.10
2018-11-04T22:48:29.882Z,42.07
2018-11-04T22:50:58.510Z,44.27
2018-11-04T22:53:30.828Z,47.10
2018-11-04T22:56:00.392Z,43.67
2018-11-04T22:58:41.318Z,44.30
2018-11-04T23:01:10.824Z,46.07
2018-11-04T23:03:45.444Z,40.90
2018-11-04T23:06:13.874Z,45.53
2018-11-04T23:08:42.626Z,42.97
2018-11-04T23:11:13.311Z,36.83
2018-11-04T23:13:42.044Z,47.00
2018-11-04T23:16:17.083Z,43.00
2018-11-04T23:18:47.669Z,40.23
2018-11-04T23:21:17.110Z,43.40
2018-11-04T23:23:46.632Z,40.23
2018-11-04T23:26:27.550Z,38.37
2018-11-04T23:29:01.826Z,43.13
2018-11-04T23:31:30.276Z,44.43
2018-11-04T23:33:59.793Z,45.10
2018-11-04T23:36:29.333Z,44.93
2018-11-04T23:38:58.783Z,44.13
2018-11-04T23:41:33.021Z,39.43
2018-11-04T23:44:01.512Z,43.87
2018-11-04T23:46:31.150Z,41.83
2018-11-04T23:49:05.247Z,39.67
2018-11-04T23:51:37.402Z,39.80
2018-11-04T23:54:09.326Z,40.13
2018-11-04T23:56:43.584Z,41.43
2018-11-04T23:59:12.037Z,45.23
